Terminal Aerodrome Forecast
Issued by NWS Greer, SC

Home | Current Version | Previous Version | Text Only | Print | Product List | Glossary On
Versions: 1 2 3 4 5 6 7 8 9 10 11 12 13 14 15 16 17 18 19 20 21 22 23 24 25
000
FTUS42 KGSP 181700
TAFGSP
TAF
KGSP 181735Z 1818/1918 00000KT P6SM SCT015 BKN040
      TEMPO 1818/1819 BKN015
     FM182100 05004KT P6SM SCT040 BKN250
     FM190100 00000KT P6SM BKN040
     FM190900 04003KT 4SM BR BKN020
     FM191100 05003KT 4SM BR OVC007
     FM191400 05005KT P6SM BKN016
     FM191600 05007KT P6SM BKN040=

USA.gov is the U.S. government's official web portal to all federal, state and local government web resources and services.